sensor_id;sensor_type;location;lat;lon;timestamp;temperature;humidity
12115;DHT22;6121;49.810;6.418;2024-03-25T00:00:13;5.90;99.90
12115;DHT22;6121;49.810;6.418;2024-03-25T00:02:40;5.80;99.90
12115;DHT22;6121;49.810;6.418;2024-03-25T00:05:07;6.00;99.90
12115;DHT22;6121;49.810;6.418;2024-03-25T00:07:35;5.30;99.90
12115;DHT22;6121;49.810;6.418;2024-03-25T00:10:02;5.50;99.90
12115;DHT22;6121;49.810;6.418;2024-03-25T00:12:28;5.30;99.90
12115;DHT22;6121;49.810;6.418;2024-03-25T00:14:54;5.20;99.90
12115;DHT22;6121;49.810;6.418;2024-03-25T00:17:20;5.00;99.90
12115;DHT22;6121;49.810;6.418;2024-03-25T00:19:47;4.90;99.90
12115;DHT22;6121;49.810;6.418;2024-03-25T00:22:17;4.90;99.90
12115;DHT22;6121;49.810;6.418;2024-03-25T00:24:43;4.90;99.90
12115;DHT22;6121;49.810;6.418;2024-03-25T00:27:09;4.70;99.90
12115;DHT22;6121;49.810;6.418;2024-03-25T00:29:35;5.10;99.90
12115;DHT22;6121;49.810;6.418;2024-03-25T00:32:01;5.20;99.90
12115;DHT22;6121;49.810;6.418;2024-03-25T00:34:27;4.70;99.90
12115;DHT22;6121;49.810;6.418;2024-03-25T00:36:52;4.80;99.90
12115;DHT22;6121;49.810;6.418;2024-03-25T00:39:19;4.50;99.90
12115;DHT22;6121;49.810;6.418;2024-03-25T00:41:45;4.50;99.90
12115;DHT22;6121;49.810;6.418;2024-03-25T00:44:10;4.30;99.90
12115;DHT22;6121;49.810;6.418;2024-03-25T00:46:37;4.30;99.90
12115;DHT22;6121;49.810;6.418;2024-03-25T00:49:03;4.80;99.90
12115;DHT22;6121;49.810;6.418;2024-03-25T00:51:29;4.30;99.90
12115;DHT22;6121;49.810;6.418;2024-03-25T00:53:55;4.40;99.90
12115;DHT22;6121;49.810;6.418;2024-03-25T00:56:20;4.20;99.90
12115;DHT22;6121;49.810;6.418;2024-03-25T00:58:46;4.60;99.90
12115;DHT22;6121;49.810;6.418;2024-03-25T01:01:12;4.10;99.90
12115;DHT22;6121;49.810;6.418;2024-03-25T01:03:39;4.00;99.90
12115;DHT22;6121;49.810;6.418;2024-03-25T01:06:05;4.10;99.90
12115;DHT22;6121;49.810;6.418;2024-03-25T01:08:31;4.20;99.90
12115;DHT22;6121;49.810;6.418;2024-03-25T01:10:57;4.70;99.90
12115;DHT22;6121;49.810;6.418;2024-03-25T01:13:23;4.20;99.90
12115;DHT22;6121;49.810;6.418;2024-03-25T01:15:48;3.80;99.90
12115;DHT22;6121;49.810;6.418;2024-03-25T01:18:14;3.80;99.90
12115;DHT22;6121;49.810;6.418;2024-03-25T01:20:40;4.10;99.90
12115;DHT22;6121;49.810;6.418;2024-03-25T01:23:06;3.80;99.90
12115;DHT22;6121;49.810;6.418;2024-03-25T01:25:32;4.00;99.90
12115;DHT22;6121;49.810;6.418;2024-03-25T01:27:58;3.50;99.90
12115;DHT22;6121;49.810;6.418;2024-03-25T01:30:23;3.60;99.90
12115;DHT22;6121;49.810;6.418;2024-03-25T01:32:49;3.80;99.90
12115;DHT22;6121;49.810;6.418;2024-03-25T01:35:15;3.60;99.90
12115;DHT22;6121;49.810;6.418;2024-03-25T01:37:42;3.60;99.90
12115;DHT22;6121;49.810;6.418;2024-03-25T01:40:08;4.10;99.90
12115;DHT22;6121;49.810;6.418;2024-03-25T01:42:36;3.50;99.90
12115;DHT22;6121;49.810;6.418;2024-03-25T01:45:03;3.60;99.90
12115;DHT22;6121;49.810;6.418;2024-03-25T01:47:30;3.60;99.90
12115;DHT22;6121;49.810;6.418;2024-03-25T01:49:59;3.40;99.90
12115;DHT22;6121;49.810;6.418;2024-03-25T01:52:26;3.30;99.90
12115;DHT22;6121;49.810;6.418;2024-03-25T01:54:53;3.40;99.90
12115;DHT22;6121;49.810;6.418;2024-03-25T01:57:20;3.80;99.90
12115;DHT22;6121;49.810;6.418;2024-03-25T01:59:46;3.70;99.90
12115;DHT22;6121;49.810;6.418;2024-03-25T02:02:13;3.50;99.90
12115;DHT22;6121;49.810;6.418;2024-03-25T02:04:39;3.50;99.90
12115;DHT22;6121;49.810;6.418;2024-03-25T02:07:07;3.60;99.90
12115;DHT22;6121;49.810;6.418;2024-03-25T02:09:35;3.50;99.90
12115;DHT22;6121;49.810;6.418;2024-03-25T02:12:02;3.70;99.90
12115;DHT22;6121;49.810;6.418;2024-03-25T02:14:28;3.40;99.90
12115;DHT22;6121;49.810;6.418;2024-03-25T02:16:54;3.10;99.90
12115;DHT22;6121;49.810;6.418;2024-03-25T02:19:22;3.10;99.90
12115;DHT22;6121;49.810;6.418;2024-03-25T02:21:49;3.10;99.90
12115;DHT22;6121;49.810;6.418;2024-03-25T02:24:15;3.10;99.90
12115;DHT22;6121;49.810;6.418;2024-03-25T02:26:45;3.20;99.90
12115;DHT22;6121;49.810;6.418;2024-03-25T02:29:11;3.40;99.90
12115;DHT22;6121;49.810;6.418;2024-03-25T02:31:36;3.10;99.90
12115;DHT22;6121;49.810;6.418;2024-03-25T02:34:02;3.00;99.90
12115;DHT22;6121;49.810;6.418;2024-03-25T02:36:28;3.00;99.90
12115;DHT22;6121;49.810;6.418;2024-03-25T02:38:54;3.20;99.90
12115;DHT22;6121;49.810;6.418;2024-03-25T02:41:20;2.80;99.90
12115;DHT22;6121;49.810;6.418;2024-03-25T02:43:48;2.70;99.90
12115;DHT22;6121;49.810;6.418;2024-03-25T02:46:14;2.90;99.90
12115;DHT22;6121;49.810;6.418;2024-03-25T02:48:40;2.90;99.90
12115;DHT22;6121;49.810;6.418;2024-03-25T02:51:06;3.00;99.90
12115;DHT22;6121;49.810;6.418;2024-03-25T02:53:31;2.70;99.90
12115;DHT22;6121;49.810;6.418;2024-03-25T02:55:57;2.70;99.90
12115;DHT22;6121;49.810;6.418;2024-03-25T02:58:23;2.50;99.90
12115;DHT22;6121;49.810;6.418;2024-03-25T03:00:49;2.60;99.90
12115;DHT22;6121;49.810;6.418;2024-03-25T03:03:15;2.50;99.90
12115;DHT22;6121;49.810;6.418;2024-03-25T03:05:41;2.60;99.90
12115;DHT22;6121;49.810;6.418;2024-03-25T03:08:06;2.40;99.90
12115;DHT22;6121;49.810;6.418;2024-03-25T03:10:32;2.50;99.90
12115;DHT22;6121;49.810;6.418;2024-03-25T03:12:58;2.40;99.90
12115;DHT22;6121;49.810;6.418;2024-03-25T03:15:24;2.50;99.90
12115;DHT22;6121;49.810;6.418;2024-03-25T03:17:50;2.70;99.90
12115;DHT22;6121;49.810;6.418;2024-03-25T03:20:16;2.50;99.90
12115;DHT22;6121;49.810;6.418;2024-03-25T03:22:42;2.30;99.90
12115;DHT22;6121;49.810;6.418;2024-03-25T03:25:08;2.40;99.90
12115;DHT22;6121;49.810;6.418;2024-03-25T03:27:33;2.80;99.90
12115;DHT22;6121;49.810;6.418;2024-03-25T03:29:59;2.00;99.90
12115;DHT22;6121;49.810;6.418;2024-03-25T03:32:25;2.10;99.90
12115;DHT22;6121;49.810;6.418;2024-03-25T03:34:51;2.20;99.90
12115;DHT22;6121;49.810;6.418;2024-03-25T03:37:17;2.30;99.90
12115;DHT22;6121;49.810;6.418;2024-03-25T03:39:43;2.20;99.90
12115;DHT22;6121;49.810;6.418;2024-03-25T03:42:08;2.60;99.90
12115;DHT22;6121;49.810;6.418;2024-03-25T03:44:34;2.10;99.90
12115;DHT22;6121;49.810;6.418;2024-03-25T03:47:01;2.00;99.90
12115;DHT22;6121;49.810;6.418;2024-03-25T03:49:26;2.30;99.90
12115;DHT22;6121;49.810;6.418;2024-03-25T03:51:52;2.10;99.90
12115;DHT22;6121;49.810;6.418;2024-03-25T03:54:18;2.20;99.90
12115;DHT22;6121;49.810;6.418;2024-03-25T03:56:44;2.20;99.90
12115;DHT22;6121;49.810;6.418;2024-03-25T03:59:10;2.00;99.90
12115;DHT22;6121;49.810;6.418;2024-03-25T04:01:36;2.10;99.90
12115;DHT22;6121;49.810;6.418;2024-03-25T04:04:01;1.90;99.90
12115;DHT22;6121;49.810;6.418;2024-03-25T04:06:27;1.90;99.90
12115;DHT22;6121;49.810;6.418;2024-03-25T04:08:53;1.90;99.90
12115;DHT22;6121;49.810;6.418;2024-03-25T04:11:19;1.90;99.90
12115;DHT22;6121;49.810;6.418;2024-03-25T04:13:46;2.00;99.90
12115;DHT22;6121;49.810;6.418;2024-03-25T04:16:12;1.90;99.90
12115;DHT22;6121;49.810;6.418;2024-03-25T04:18:38;1.60;99.90
12115;DHT22;6121;49.810;6.418;2024-03-25T04:21:11;1.70;99.90
12115;DHT22;6121;49.810;6.418;2024-03-25T04:23:37;2.10;99.90
12115;DHT22;6121;49.810;6.418;2024-03-25T04:26:03;2.60;99.90
12115;DHT22;6121;49.810;6.418;2024-03-25T04:28:31;1.80;99.90
12115;DHT22;6121;49.810;6.418;2024-03-25T04:30:57;1.80;99.90
12115;DHT22;6121;49.810;6.418;2024-03-25T04:33:23;1.70;99.90
12115;DHT22;6121;49.810;6.418;2024-03-25T04:35:49;1.50;99.90
12115;DHT22;6121;49.810;6.418;2024-03-25T04:38:16;1.50;99.90
12115;DHT22;6121;49.810;6.418;2024-03-25T04:40:43;1.60;99.90
12115;DHT22;6121;49.810;6.418;2024-03-25T04:43:09;1.40;99.90
12115;DHT22;6121;49.810;6.418;2024-03-25T04:45:36;1.40;99.90
12115;DHT22;6121;49.810;6.418;2024-03-25T04:48:02;1.30;99.90
12115;DHT22;6121;49.810;6.418;2024-03-25T04:50:28;1.50;99.90
12115;DHT22;6121;49.810;6.418;2024-03-25T04:52:54;1.40;99.90
12115;DHT22;6121;49.810;6.418;2024-03-25T04:55:19;1.30;99.90
12115;DHT22;6121;49.810;6.418;2024-03-25T04:57:47;1.00;99.90
12115;DHT22;6121;49.810;6.418;2024-03-25T05:00:13;1.80;99.90
12115;DHT22;6121;49.810;6.418;2024-03-25T05:02:39;1.30;99.90
12115;DHT22;6121;49.810;6.418;2024-03-25T05:05:05;1.30;99.90
12115;DHT22;6121;49.810;6.418;2024-03-25T05:07:33;1.40;99.90
12115;DHT22;6121;49.810;6.418;2024-03-25T05:09:59;1.30;99.90
12115;DHT22;6121;49.810;6.418;2024-03-25T05:12:25;1.50;99.90
12115;DHT22;6121;49.810;6.418;2024-03-25T05:14:56;1.40;99.90
12115;DHT22;6121;49.810;6.418;2024-03-25T05:17:22;1.40;99.90
12115;DHT22;6121;49.810;6.418;2024-03-25T05:19:48;1.40;99.90
12115;DHT22;6121;49.810;6.418;2024-03-25T05:22:14;1.20;99.90
12115;DHT22;6121;49.810;6.418;2024-03-25T05:24:40;1.10;99.90
12115;DHT22;6121;49.810;6.418;2024-03-25T05:27:05;1.20;99.90
12115;DHT22;6121;49.810;6.418;2024-03-25T05:29:31;1.30;99.90
12115;DHT22;6121;49.810;6.418;2024-03-25T05:31:59;1.20;99.90
12115;DHT22;6121;49.810;6.418;2024-03-25T05:34:26;0.70;99.90
12115;DHT22;6121;49.810;6.418;2024-03-25T05:36:53;1.30;99.90
12115;DHT22;6121;49.810;6.418;2024-03-25T05:39:19;1.30;99.90
12115;DHT22;6121;49.810;6.418;2024-03-25T05:41:46;1.40;99.90
12115;DHT22;6121;49.810;6.418;2024-03-25T05:44:12;1.20;99.90
12115;DHT22;6121;49.810;6.418;2024-03-25T05:46:39;1.10;99.90
12115;DHT22;6121;49.810;6.418;2024-03-25T05:49:05;1.00;99.90
12115;DHT22;6121;49.810;6.418;2024-03-25T05:51:31;1.00;99.90
12115;DHT22;6121;49.810;6.418;2024-03-25T05:53:59;1.10;99.90
12115;DHT22;6121;49.810;6.418;2024-03-25T05:56:25;1.10;99.90
12115;DHT22;6121;49.810;6.418;2024-03-25T05:59:00;1.20;99.90
12115;DHT22;6121;49.810;6.418;2024-03-25T06:01:26;1.30;99.90
12115;DHT22;6121;49.810;6.418;2024-03-25T06:03:53;1.30;99.90
12115;DHT22;6121;49.810;6.418;2024-03-25T06:06:19;1.30;99.90
12115;DHT22;6121;49.810;6.418;2024-03-25T06:08:45;1.60;99.90
12115;DHT22;6121;49.810;6.418;2024-03-25T06:11:11;1.40;99.90
12115;DHT22;6121;49.810;6.418;2024-03-25T06:13:37;1.50;99.90
12115;DHT22;6121;49.810;6.418;2024-03-25T06:16:04;1.50;99.90
12115;DHT22;6121;49.810;6.418;2024-03-25T06:18:30;1.50;99.90
12115;DHT22;6121;49.810;6.418;2024-03-25T06:20:55;1.80;99.90
12115;DHT22;6121;49.810;6.418;2024-03-25T06:23:29;1.40;99.90
12115;DHT22;6121;49.810;6.418;2024-03-25T06:25:56;1.50;99.90
12115;DHT22;6121;49.810;6.418;2024-03-25T06:28:22;1.60;99.90
12115;DHT22;6121;49.810;6.418;2024-03-25T06:30:49;1.70;99.90
12115;DHT22;6121;49.810;6.418;2024-03-25T06:33:33;2.00;99.90
12115;DHT22;6121;49.810;6.418;2024-03-25T06:36:18;2.10;99.90
12115;DHT22;6121;49.810;6.418;2024-03-25T06:38:45;2.10;99.90
12115;DHT22;6121;49.810;6.418;2024-03-25T06:41:11;2.00;99.90
12115;DHT22;6121;49.810;6.418;2024-03-25T06:43:37;2.10;99.90
12115;DHT22;6121;49.810;6.418;2024-03-25T06:46:04;2.20;99.90
12115;DHT22;6121;49.810;6.418;2024-03-25T06:48:30;2.40;99.90
12115;DHT22;6121;49.810;6.418;2024-03-25T06:50:58;2.30;99.90
12115;DHT22;6121;49.810;6.418;2024-03-25T06:53:24;2.50;99.90
12115;DHT22;6121;49.810;6.418;2024-03-25T06:55:57;2.70;99.90
12115;DHT22;6121;49.810;6.418;2024-03-25T06:58:24;2.70;99.90
12115;DHT22;6121;49.810;6.418;2024-03-25T07:00:51;2.70;99.90
12115;DHT22;6121;49.810;6.418;2024-03-25T07:03:17;2.60;99.90
12115;DHT22;6121;49.810;6.418;2024-03-25T07:05:47;2.80;99.90
12115;DHT22;6121;49.810;6.418;2024-03-25T07:08:14;2.70;99.90
12115;DHT22;6121;49.810;6.418;2024-03-25T07:10:44;3.20;99.90
12115;DHT22;6121;49.810;6.418;2024-03-25T07:13:10;2.90;99.90
12115;DHT22;6121;49.810;6.418;2024-03-25T07:15:36;2.90;99.90
12115;DHT22;6121;49.810;6.418;2024-03-25T07:18:03;3.10;99.90
12115;DHT22;6121;49.810;6.418;2024-03-25T07:20:29;3.10;99.90
12115;DHT22;6121;49.810;6.418;2024-03-25T07:22:56;3.30;99.90
12115;DHT22;6121;49.810;6.418;2024-03-25T07:25:22;3.00;99.90
12115;DHT22;6121;49.810;6.418;2024-03-25T07:27:48;3.20;99.90
12115;DHT22;6121;49.810;6.418;2024-03-25T07:30:14;3.30;99.90
12115;DHT22;6121;49.810;6.418;2024-03-25T07:32:40;3.40;99.90
12115;DHT22;6121;49.810;6.418;2024-03-25T07:35:06;3.40;99.90
12115;DHT22;6121;49.810;6.418;2024-03-25T07:37:34;3.60;99.90
12115;DHT22;6121;49.810;6.418;2024-03-25T07:40:00;3.90;99.90
12115;DHT22;6121;49.810;6.418;2024-03-25T07:42:26;3.80;99.90
12115;DHT22;6121;49.810;6.418;2024-03-25T07:44:52;3.90;99.90
12115;DHT22;6121;49.810;6.418;2024-03-25T07:47:18;4.30;99.90
12115;DHT22;6121;49.810;6.418;2024-03-25T07:49:44;4.60;99.90
12115;DHT22;6121;49.810;6.418;2024-03-25T07:52:10;4.60;99.90
12115;DHT22;6121;49.810;6.418;2024-03-25T07:54:36;4.10;99.90
12115;DHT22;6121;49.810;6.418;2024-03-25T07:57:04;4.40;99.90
12115;DHT22;6121;49.810;6.418;2024-03-25T07:59:30;4.60;99.90
12115;DHT22;6121;49.810;6.418;2024-03-25T08:01:56;4.50;99.90
12115;DHT22;6121;49.810;6.418;2024-03-25T08:04:22;4.70;99.90
12115;DHT22;6121;49.810;6.418;2024-03-25T08:06:48;4.70;99.90
12115;DHT22;6121;49.810;6.418;2024-03-25T08:09:14;4.80;99.90
12115;DHT22;6121;49.810;6.418;2024-03-25T08:11:41;5.20;99.90
12115;DHT22;6121;49.810;6.418;2024-03-25T08:14:10;4.80;99.90
12115;DHT22;6121;49.810;6.418;2024-03-25T08:16:36;5.20;99.90
12115;DHT22;6121;49.810;6.418;2024-03-25T08:19:02;5.60;99.90
12115;DHT22;6121;49.810;6.418;2024-03-25T08:21:28;5.90;99.90
12115;DHT22;6121;49.810;6.418;2024-03-25T08:23:54;5.50;99.90
12115;DHT22;6121;49.810;6.418;2024-03-25T08:26:20;5.80;99.90
12115;DHT22;6121;49.810;6.418;2024-03-25T08:28:46;6.00;99.90
12115;DHT22;6121;49.810;6.418;2024-03-25T08:31:14;6.10;99.90
12115;DHT22;6121;49.810;6.418;2024-03-25T08:33:40;6.10;99.90
12115;DHT22;6121;49.810;6.418;2024-03-25T08:36:07;6.00;99.90
12115;DHT22;6121;49.810;6.418;2024-03-25T08:38:33;6.10;99.90
12115;DHT22;6121;49.810;6.418;2024-03-25T08:40:59;6.30;99.90
12115;DHT22;6121;49.810;6.418;2024-03-25T08:43:25;6.40;99.90
12115;DHT22;6121;49.810;6.418;2024-03-25T08:45:51;6.60;99.90
12115;DHT22;6121;49.810;6.418;2024-03-25T08:48:17;7.70;99.90
12115;DHT22;6121;49.810;6.418;2024-03-25T08:50:43;7.80;99.90
12115;DHT22;6121;49.810;6.418;2024-03-25T08:53:10;8.30;99.90
12115;DHT22;6121;49.810;6.418;2024-03-25T08:55:36;8.30;99.90
12115;DHT22;6121;49.810;6.418;2024-03-25T08:58:02;8.40;99.90
12115;DHT22;6121;49.810;6.418;2024-03-25T09:00:28;8.50;99.90
12115;DHT22;6121;49.810;6.418;2024-03-25T09:02:54;9.10;99.90
12115;DHT22;6121;49.810;6.418;2024-03-25T09:05:21;9.40;99.90
12115;DHT22;6121;49.810;6.418;2024-03-25T09:07:50;9.60;99.90
12115;DHT22;6121;49.810;6.418;2024-03-25T09:10:21;9.70;99.90
12115;DHT22;6121;49.810;6.418;2024-03-25T09:13:05;10.00;99.90
12115;DHT22;6121;49.810;6.418;2024-03-25T09:15:31;10.10;99.90
12115;DHT22;6121;49.810;6.418;2024-03-25T09:17:57;10.60;99.90
12115;DHT22;6121;49.810;6.418;2024-03-25T09:20:24;11.20;99.90
12115;DHT22;6121;49.810;6.418;2024-03-25T09:22:51;11.70;99.90
12115;DHT22;6121;49.810;6.418;2024-03-25T09:25:18;11.80;99.90
12115;DHT22;6121;49.810;6.418;2024-03-25T09:27:48;12.20;99.90
12115;DHT22;6121;49.810;6.418;2024-03-25T09:30:14;12.50;99.90
12115;DHT22;6121;49.810;6.418;2024-03-25T09:32:41;12.80;99.90
12115;DHT22;6121;49.810;6.418;2024-03-25T09:35:10;13.10;99.90
12115;DHT22;6121;49.810;6.418;2024-03-25T09:37:36;12.80;99.90
12115;DHT22;6121;49.810;6.418;2024-03-25T09:40:02;13.40;99.90
12115;DHT22;6121;49.810;6.418;2024-03-25T09:42:48;13.90;99.90
12115;DHT22;6121;49.810;6.418;2024-03-25T09:45:16;14.30;99.90
12115;DHT22;6121;49.810;6.418;2024-03-25T09:47:46;14.40;99.90
12115;DHT22;6121;49.810;6.418;2024-03-25T09:50:14;14.70;99.90
12115;DHT22;6121;49.810;6.418;2024-03-25T09:52:48;14.70;99.90
12115;DHT22;6121;49.810;6.418;2024-03-25T09:55:15;14.70;99.90
12115;DHT22;6121;49.810;6.418;2024-03-25T09:57:42;14.80;99.90
12115;DHT22;6121;49.810;6.418;2024-03-25T10:00:09;15.90;99.90
12115;DHT22;6121;49.810;6.418;2024-03-25T10:02:40;15.70;99.90
12115;DHT22;6121;49.810;6.418;2024-03-25T10:05:07;15.60;99.90
12115;DHT22;6121;49.810;6.418;2024-03-25T10:07:34;14.30;99.90
12115;DHT22;6121;49.810;6.418;2024-03-25T10:10:03;13.80;99.90
12115;DHT22;6121;49.810;6.418;2024-03-25T10:12:32;14.70;99.90
12115;DHT22;6121;49.810;6.418;2024-03-25T10:14:58;15.30;99.90
12115;DHT22;6121;49.810;6.418;2024-03-25T10:17:25;16.30;99.90
12115;DHT22;6121;49.810;6.418;2024-03-25T10:19:53;16.80;99.90
12115;DHT22;6121;49.810;6.418;2024-03-25T10:22:18;17.00;99.90
12115;DHT22;6121;49.810;6.418;2024-03-25T10:24:45;16.30;99.90
12115;DHT22;6121;49.810;6.418;2024-03-25T10:27:21;16.40;99.90
12115;DHT22;6121;49.810;6.418;2024-03-25T10:29:48;17.30;99.90
12115;DHT22;6121;49.810;6.418;2024-03-25T10:32:14;17.90;99.90
12115;DHT22;6121;49.810;6.418;2024-03-25T10:34:41;17.70;99.90
12115;DHT22;6121;49.810;6.418;2024-03-25T10:37:09;17.70;99.90
12115;DHT22;6121;49.810;6.418;2024-03-25T10:39:39;18.00;98.90
12115;DHT22;6121;49.810;6.418;2024-03-25T10:42:14;18.20;99.70
12115;DHT22;6121;49.810;6.418;2024-03-25T10:44:40;17.30;98.90
12115;DHT22;6121;49.810;6.418;2024-03-25T10:47:08;17.20;98.70
12115;DHT22;6121;49.810;6.418;2024-03-25T10:49:46;17.00;98.70
12115;DHT22;6121;49.810;6.418;2024-03-25T10:52:14;17.30;98.50
12115;DHT22;6121;49.810;6.418;2024-03-25T10:54:42;18.10;98.60
12115;DHT22;6121;49.810;6.418;2024-03-25T10:57:09;17.90;97.80
12115;DHT22;6121;49.810;6.418;2024-03-25T10:59:37;16.30;96.50
12115;DHT22;6121;49.810;6.418;2024-03-25T11:02:08;15.20;96.90
12115;DHT22;6121;49.810;6.418;2024-03-25T11:04:34;14.30;98.40
12115;DHT22;6121;49.810;6.418;2024-03-25T11:07:08;14.50;98.70
12115;DHT22;6121;49.810;6.418;2024-03-25T11:09:34;14.70;99.20
12115;DHT22;6121;49.810;6.418;2024-03-25T11:12:01;14.70;99.70
12115;DHT22;6121;49.810;6.418;2024-03-25T11:14:27;14.60;99.50
12115;DHT22;6121;49.810;6.418;2024-03-25T11:16:54;14.70;99.00
12115;DHT22;6121;49.810;6.418;2024-03-25T11:19:26;14.90;98.90
12115;DHT22;6121;49.810;6.418;2024-03-25T11:21:54;15.00;98.70
12115;DHT22;6121;49.810;6.418;2024-03-25T11:24:29;15.00;99.10
12115;DHT22;6121;49.810;6.418;2024-03-25T11:26:56;15.20;97.80
12115;DHT22;6121;49.810;6.418;2024-03-25T11:29:22;14.90;97.20
12115;DHT22;6121;49.810;6.418;2024-03-25T11:31:53;15.10;98.10
12115;DHT22;6121;49.810;6.418;2024-03-25T11:34:19;14.90;98.60
12115;DHT22;6121;49.810;6.418;2024-03-25T11:36:46;15.00;98.70
12115;DHT22;6121;49.810;6.418;2024-03-25T11:39:15;16.20;98.30
12115;DHT22;6121;49.810;6.418;2024-03-25T11:41:45;16.80;97.20
12115;DHT22;6121;49.810;6.418;2024-03-25T11:44:11;17.30;97.10
12115;DHT22;6121;49.810;6.418;2024-03-25T11:46:40;16.90;96.70
12115;DHT22;6121;49.810;6.418;2024-03-25T11:49:09;16.40;96.00
12115;DHT22;6121;49.810;6.418;2024-03-25T11:51:35;15.60;96.00
12115;DHT22;6121;49.810;6.418;2024-03-25T11:54:05;15.30;96.40
12115;DHT22;6121;49.810;6.418;2024-03-25T11:56:32;15.40;95.70
12115;DHT22;6121;49.810;6.418;2024-03-25T11:58:59;15.60;94.90
12115;DHT22;6121;49.810;6.418;2024-03-25T12:01:26;15.10;95.70
12115;DHT22;6121;49.810;6.418;2024-03-25T12:03:52;15.20;94.70
12115;DHT22;6121;49.810;6.418;2024-03-25T12:06:18;14.90;95.50
12115;DHT22;6121;49.810;6.418;2024-03-25T12:08:44;15.40;94.50
12115;DHT22;6121;49.810;6.418;2024-03-25T12:11:30;15.70;94.00
12115;DHT22;6121;49.810;6.418;2024-03-25T12:13:56;16.40;93.80
12115;DHT22;6121;49.810;6.418;2024-03-25T12:16:23;16.40;93.00
12115;DHT22;6121;49.810;6.418;2024-03-25T12:18:49;15.90;93.00
12115;DHT22;6121;49.810;6.418;2024-03-25T12:21:15;15.60;93.20
12115;DHT22;6121;49.810;6.418;2024-03-25T12:23:42;16.20;93.30
12115;DHT22;6121;49.810;6.418;2024-03-25T12:26:08;16.70;91.40
12115;DHT22;6121;49.810;6.418;2024-03-25T12:28:34;17.00;88.80
12115;DHT22;6121;49.810;6.418;2024-03-25T12:31:07;17.50;87.80
12115;DHT22;6121;49.810;6.418;2024-03-25T12:33:43;17.00;85.80
12115;DHT22;6121;49.810;6.418;2024-03-25T12:36:12;15.80;82.80
12115;DHT22;6121;49.810;6.418;2024-03-25T12:38:38;15.50;85.80
12115;DHT22;6121;49.810;6.418;2024-03-25T12:41:06;15.40;87.10
12115;DHT22;6121;49.810;6.418;2024-03-25T12:43:34;15.50;86.60
12115;DHT22;6121;49.810;6.418;2024-03-25T12:46:00;16.30;88.00
12115;DHT22;6121;49.810;6.418;2024-03-25T12:48:26;15.80;86.10
12115;DHT22;6121;49.810;6.418;2024-03-25T12:50:52;16.50;87.10
12115;DHT22;6121;49.810;6.418;2024-03-25T12:53:19;16.90;84.50
12115;DHT22;6121;49.810;6.418;2024-03-25T12:55:46;16.90;83.60
12115;DHT22;6121;49.810;6.418;2024-03-25T12:58:13;17.30;84.10
12115;DHT22;6121;49.810;6.418;2024-03-25T13:00:39;17.50;83.70
12115;DHT22;6121;49.810;6.418;2024-03-25T13:03:07;17.90;82.50
12115;DHT22;6121;49.810;6.418;2024-03-25T13:05:34;17.80;81.70
12115;DHT22;6121;49.810;6.418;2024-03-25T13:08:00;18.00;81.70
12115;DHT22;6121;49.810;6.418;2024-03-25T13:10:27;16.70;80.10
12115;DHT22;6121;49.810;6.418;2024-03-25T13:12:53;16.30;82.40
12115;DHT22;6121;49.810;6.418;2024-03-25T13:15:19;15.80;84.80
12115;DHT22;6121;49.810;6.418;2024-03-25T13:17:45;16.10;84.70
12115;DHT22;6121;49.810;6.418;2024-03-25T13:20:11;15.70;83.60
12115;DHT22;6121;49.810;6.418;2024-03-25T13:22:37;15.70;83.10
12115;DHT22;6121;49.810;6.418;2024-03-25T13:25:04;16.30;86.40
12115;DHT22;6121;49.810;6.418;2024-03-25T13:27:30;16.50;83.70
12115;DHT22;6121;49.810;6.418;2024-03-25T13:29:56;16.10;84.10
12115;DHT22;6121;49.810;6.418;2024-03-25T13:32:22;15.90;86.00
12115;DHT22;6121;49.810;6.418;2024-03-25T13:34:50;16.00;85.00
12115;DHT22;6121;49.810;6.418;2024-03-25T13:37:16;15.90;85.20
12115;DHT22;6121;49.810;6.418;2024-03-25T13:39:41;15.70;83.80
12115;DHT22;6121;49.810;6.418;2024-03-25T13:42:07;14.70;83.70
12115;DHT22;6121;49.810;6.418;2024-03-25T13:44:33;14.40;84.30
12115;DHT22;6121;49.810;6.418;2024-03-25T13:46:59;14.10;84.80
12115;DHT22;6121;49.810;6.418;2024-03-25T13:49:25;14.50;86.40
12115;DHT22;6121;49.810;6.418;2024-03-25T13:51:56;14.40;84.80
12115;DHT22;6121;49.810;6.418;2024-03-25T13:54:22;14.30;85.40
12115;DHT22;6121;49.810;6.418;2024-03-25T13:56:48;14.50;85.30
12115;DHT22;6121;49.810;6.418;2024-03-25T13:59:14;14.60;84.20
12115;DHT22;6121;49.810;6.418;2024-03-25T14:01:41;14.20;85.30
12115;DHT22;6121;49.810;6.418;2024-03-25T14:04:06;14.10;85.00
12115;DHT22;6121;49.810;6.418;2024-03-25T14:06:33;14.00;85.80
12115;DHT22;6121;49.810;6.418;2024-03-25T14:09:02;14.10;85.60
12115;DHT22;6121;49.810;6.418;2024-03-25T14:11:30;14.20;83.20
12115;DHT22;6121;49.810;6.418;2024-03-25T14:13:56;14.00;83.90
12115;DHT22;6121;49.810;6.418;2024-03-25T14:16:22;14.00;84.60
12115;DHT22;6121;49.810;6.418;2024-03-25T14:18:48;13.90;84.10
12115;DHT22;6121;49.810;6.418;2024-03-25T14:21:14;14.10;85.10
12115;DHT22;6121;49.810;6.418;2024-03-25T14:23:39;13.60;83.50
12115;DHT22;6121;49.810;6.418;2024-03-25T14:26:12;13.70;84.90
12115;DHT22;6121;49.810;6.418;2024-03-25T14:28:42;13.60;85.20
12115;DHT22;6121;49.810;6.418;2024-03-25T14:31:08;13.80;84.00
12115;DHT22;6121;49.810;6.418;2024-03-25T14:33:34;13.60;84.50
12115;DHT22;6121;49.810;6.418;2024-03-25T14:36:00;13.70;85.70
12115;DHT22;6121;49.810;6.418;2024-03-25T14:38:26;13.60;85.30
12115;DHT22;6121;49.810;6.418;2024-03-25T14:40:51;13.40;85.50
12115;DHT22;6121;49.810;6.418;2024-03-25T14:43:18;13.60;86.30
12115;DHT22;6121;49.810;6.418;2024-03-25T14:45:45;13.60;86.40
12115;DHT22;6121;49.810;6.418;2024-03-25T14:48:11;13.30;86.20
12115;DHT22;6121;49.810;6.418;2024-03-25T14:50:37;13.30;86.20
12115;DHT22;6121;49.810;6.418;2024-03-25T14:53:04;13.20;85.60
12115;DHT22;6121;49.810;6.418;2024-03-25T14:55:30;13.20;87.90
12115;DHT22;6121;49.810;6.418;2024-03-25T14:57:56;12.90;87.10
12115;DHT22;6121;49.810;6.418;2024-03-25T15:00:22;13.10;87.70
12115;DHT22;6121;49.810;6.418;2024-03-25T15:02:51;13.00;88.50
12115;DHT22;6121;49.810;6.418;2024-03-25T15:05:17;13.00;88.50
12115;DHT22;6121;49.810;6.418;2024-03-25T15:07:44;13.00;87.90
12115;DHT22;6121;49.810;6.418;2024-03-25T15:10:10;13.10;87.90
12115;DHT22;6121;49.810;6.418;2024-03-25T15:12:37;13.10;87.90
12115;DHT22;6121;49.810;6.418;2024-03-25T15:15:06;13.10;88.70
12115;DHT22;6121;49.810;6.418;2024-03-25T15:17:35;13.70;90.00
12115;DHT22;6121;49.810;6.418;2024-03-25T15:20:02;13.00;87.70
12115;DHT22;6121;49.810;6.418;2024-03-25T15:22:28;13.20;87.80
12115;DHT22;6121;49.810;6.418;2024-03-25T15:24:54;13.10;86.70
12115;DHT22;6121;49.810;6.418;2024-03-25T15:27:20;13.20;87.20
12115;DHT22;6121;49.810;6.418;2024-03-25T15:29:46;13.10;87.10
12115;DHT22;6121;49.810;6.418;2024-03-25T15:32:12;12.80;87.30
12115;DHT22;6121;49.810;6.418;2024-03-25T15:34:38;12.80;87.90
12115;DHT22;6121;49.810;6.418;2024-03-25T15:37:04;12.90;87.90
12115;DHT22;6121;49.810;6.418;2024-03-25T15:39:29;12.80;86.30
12115;DHT22;6121;49.810;6.418;2024-03-25T15:41:55;12.80;85.50
12115;DHT22;6121;49.810;6.418;2024-03-25T15:44:23;12.90;87.20
12115;DHT22;6121;49.810;6.418;2024-03-25T15:46:48;13.00;88.10
12115;DHT22;6121;49.810;6.418;2024-03-25T15:49:14;12.90;89.10
12115;DHT22;6121;49.810;6.418;2024-03-25T15:51:40;12.90;88.10